Yorktown Express — WDD6127 — position and weather

sailwx.info

Track history (hours):
 
Tides and Currents Weather Stations Pressure Air Temp Water Temp Dewpoint Dewpoint Depression Visibility Wind Speed Wind Dir Waves Ship Positions

Yorktown Express

Owner: Marine Transport Management, Inc., Jacksonville, FL. More information available from US FCC via Universal Licensing System and Coast Guard Vessel Documentation Center.

Last reported at 2017-Dec-09 11:16 UTC. Time now 2017-Dec-14 16:58 UTC.
Position N 36°52' W 075°46'.

Type: Ship. MMSI: 367168650.

Date/timePositionNaut miles runAvg speedWind from/ knotsBaromVisibWave heightAir tempDewpointWater temp
2017-Dec-09 11:16N 36°52' W 075°46'2 9.0
2017-Dec-09 11:00N 36°52' W 075°49'4 8.2
2017-Dec-09 10:30N 36°53' W 075°54'5 9.2
2017-Dec-09 10:00N 36°56' W 075°59'510.5
2017-Dec-09 09:30N 36°58' W 076°05'916.5
2017-Dec-09 08:58N 37°00' W 076°16'511.5
2017-Dec-09 08:30N 36°57' W 076°20'1 2.3
2017-Dec-09 07:59N 36°55' W 076°20'0 0.0
2017-Dec-09 07:29N 36°55' W 076°20'0 0.0
2017-Dec-09 06:59N 36°55' W 076°20'0 0.0
2017-Dec-09 06:30N 36°55' W 076°20'0 0.0
2017-Dec-09 06:00N 36°55' W 076°20'0 0.0
2017-Dec-09 05:29N 36°55' W 076°20'0 0.0
2017-Dec-09 04:59N 36°55' W 076°20'0 0.0
2017-Dec-09 04:30N 36°55' W 076°20'0 0.0
2017-Dec-09 03:59N 36°55' W 076°20'0 0.0
2017-Dec-09 03:29N 36°55' W 076°20'0 0.0
2017-Dec-09 03:00N 36°55' W 076°20'0 0.0
2017-Dec-09 02:27N 36°55' W 076°20'0 0.0
2017-Dec-09 01:59N 36°55' W 076°20'0 0.0
2017-Dec-09 01:30N 36°55' W 076°20'0 0.0
2017-Dec-09 00:59N 36°55' W 076°20'0 0.0
2017-Dec-09 00:30N 36°55' W 076°20'0 0.0
2017-Dec-08 23:59N 36°55' W 076°20'0 0.0
2017-Dec-08 23:29N 36°55' W 076°20'0 0.0
2017-Dec-08 22:59N 36°55' W 076°20'0 0.0
2017-Dec-08 22:29N 36°55' W 076°20'0 0.0
2017-Dec-08 21:59N 36°55' W 076°20'0 0.0
2017-Dec-08 21:29N 36°55' W 076°20'0 0.0
2017-Dec-08 21:00N 36°55' W 076°20'0 0.0
2017-Dec-08 20:29N 36°55' W 076°20'0 0.0
2017-Dec-08 19:59N 36°55' W 076°20'0 0.0
2017-Dec-08 19:29N 36°55' W 076°20'0 0.0
2017-Dec-08 19:00N 36°55' W 076°20'0 0.0
2017-Dec-08 18:29N 36°55' W 076°20'0 0.0
2017-Dec-08 18:00N 36°55' W 076°20'0 0.0
2017-Dec-08 17:29N 36°55' W 076°20'0 0.0
2017-Dec-08 17:00N 36°55' W 076°20'0 0.0
2017-Dec-08 16:29N 36°55' W 076°20'0 0.0
2017-Dec-08 15:59N 36°55' W 076°20'0 0.0
2017-Dec-08 15:30N 36°55' W 076°20'0 0.0
2017-Dec-08 14:59N 36°55' W 076°20'1 1.8
2017-Dec-08 14:30N 36°56' W 076°20'4 8.9
2017-Dec-08 14:01N 37°00' W 076°18'816.0
2017-Dec-08 13:30N 36°59' W 076°08'714.3
2017-Dec-08 13:00N 36°57' W 075°59'4 8.8
2017-Dec-08 12:30N 36°55' W 075°54'3 6.5
2017-Dec-08 12:00N 36°52' W 075°51'5 8.3
2017-Dec-08 11:23N 36°50' W 075°46'36915.0
2017-Dec-07 10:49N 31°58' W 080°20'13 9.2
2017-Dec-07 09:24N 31°56' W 080°35'4 8.9
2017-Dec-07 09:00N 31°56' W 080°39'4 7.7
2017-Dec-07 08:30N 31°58' W 080°43'714.9
2017-Dec-07 08:01N 32°02' W 080°50'612.6
2017-Dec-07 07:31N 32°04' W 080°57'5 9.2
2017-Dec-07 07:00N 32°05' W 081°03'4 7.3
2017-Dec-07 06:29N 32°06' W 081°07'2 3.9
2017-Dec-07 06:00N 32°08' W 081°08'1 1.2
2017-Dec-07 05:30N 32°07' W 081°08'0 0.0
2017-Dec-07 05:00N 32°07' W 081°08'0 0.0
2017-Dec-07 04:18N 32°07' W 081°08'0 0.0
2017-Dec-07 04:00N 32°07' W 081°08'0 0.0
2017-Dec-07 03:30N 32°07' W 081°08'0 0.0
2017-Dec-07 02:54N 32°07' W 081°08'0 0.0
2017-Dec-07 02:30N 32°07' W 081°08'0 0.0
2017-Dec-07 02:00N 32°07' W 081°08'0 0.0
2017-Dec-07 01:30N 32°07' W 081°08'0 0.0
2017-Dec-07 01:00N 32°07' W 081°08'0 0.0
2017-Dec-07 00:24N 32°07' W 081°08'0 0.0
2017-Dec-07 00:00N 32°07' W 081°08'0 0.0
2017-Dec-06 23:30N 32°07' W 081°08'0 0.0
2017-Dec-06 23:00N 32°07' W 081°08'0 0.0
2017-Dec-06 22:30N 32°07' W 081°08'0 0.0
2017-Dec-06 22:00N 32°07' W 081°08'0 0.0
2017-Dec-06 21:30N 32°07' W 081°08'0 0.0
2017-Dec-06 21:00N 32°07' W 081°08'  
2017-Dec-04 10:30N 26°01' W 079°48'1122.2
2017-Dec-04 10:01N 25°50' W 079°50'1122.2
2017-Dec-04 09:30N 25°39' W 079°52'1121.8
2017-Dec-04 09:00N 25°28' W 079°55'1121.0
2017-Dec-04 08:30N 25°19' W 080°01'82318.2
2017-Dec-02 11:23N 29°21' W 094°47'514.6
2017-Dec-02 11:00N 29°26' W 094°50'713.5
2017-Dec-02 10:30N 29°32' W 094°54'612.8
2017-Dec-02 10:00N 29°37' W 094°57'4 8.5
2017-Dec-02 09:30N 29°41' W 094°59'0 0.1
2017-Dec-02 08:58N 29°41' W 094°60'0 0.0
2017-Dec-02 08:28N 29°41' W 094°60'0 0.0
2017-Dec-02 07:58N 29°41' W 094°60'0 0.0
2017-Dec-02 07:28N 29°41' W 094°60'0 0.0
2017-Dec-02 06:58N 29°41' W 094°60'0 0.0
2017-Dec-02 06:28N 29°41' W 094°60'0 0.0
2017-Dec-02 05:58N 29°41' W 094°60'0 0.0
2017-Dec-02 05:28N 29°41' W 094°60'0 0.0
2017-Dec-02 04:58N 29°41' W 094°60'0 0.0
2017-Dec-02 04:28N 29°41' W 094°60'0 0.0
2017-Dec-02 03:58N 29°41' W 094°60'0 0.0
2017-Dec-02 03:28N 29°41' W 094°60'0 0.0
2017-Dec-02 02:58N 29°41' W 094°60'0 0.0
2017-Dec-02 02:28N 29°41' W 094°60'0 0.0
2017-Dec-02 01:58N 29°41' W 094°60'0 0.0
2017-Dec-02 01:28N 29°41' W 094°60'0 0.0
2017-Dec-02 00:58N 29°41' W 094°60'0 0.0
2017-Dec-02 00:25N 29°41' W 094°60'0 0.0
2017-Dec-01 23:58N 29°41' W 094°60'0 0.0
2017-Dec-01 23:28N 29°41' W 094°60'0 0.0
2017-Dec-01 22:58N 29°41' W 094°60'0 0.0
2017-Dec-01 22:28N 29°41' W 094°60'0 0.0
2017-Dec-01 21:58N 29°41' W 094°60'0 0.0
2017-Dec-01 21:28N 29°41' W 094°60'0 0.0
2017-Dec-01 20:58N 29°41' W 094°60'0 0.0
2017-Dec-01 20:28N 29°41' W 094°60'0 0.0
2017-Dec-01 19:58N 29°41' W 094°60'0 0.0
2017-Dec-01 19:28N 29°41' W 094°60'0 0.0
2017-Dec-01 18:58N 29°41' W 094°60'0 0.0
2017-Dec-01 18:28N 29°41' W 094°60'0 0.0
2017-Dec-01 17:58N 29°41' W 094°60'0 0.0
2017-Dec-01 17:28N 29°41' W 094°60'0 0.0
2017-Dec-01 16:58N 29°41' W 094°60'0 0.0
2017-Dec-01 16:28N 29°41' W 094°60'0 0.0
2017-Dec-01 15:58N 29°41' W 094°60'0 0.0
2017-Dec-01 15:25N 29°41' W 094°60'0 0.0
2017-Dec-01 14:58N 29°41' W 094°60'0 0.0
2017-Dec-01 14:28N 29°41' W 094°60'0 0.0
2017-Dec-01 13:58N 29°41' W 094°60'0 0.0
2017-Dec-01 13:28N 29°41' W 094°60'0 0.0
2017-Dec-01 12:58N 29°41' W 094°60'0 0.0
2017-Dec-01 12:28N 29°41' W 094°60'0 0.0
2017-Dec-01 11:58N 29°41' W 094°60'0 0.0
2017-Dec-01 11:28N 29°41' W 094°60'0 0.0
2017-Dec-01 10:58N 29°41' W 094°60'0 0.0
2017-Dec-01 10:28N 29°41' W 094°60'0 0.0
2017-Dec-01 09:58N 29°41' W 094°60'0 0.0
2017-Dec-01 09:28N 29°41' W 094°60'0 0.0
2017-Dec-01 08:58N 29°41' W 094°60'0 0.0
2017-Dec-01 08:28N 29°41' W 094°60'0 0.0
2017-Dec-01 07:58N 29°41' W 094°60'0 0.0
2017-Dec-01 07:28N 29°41' W 094°60'0 0.0
2017-Dec-01 07:00N 29°41' W 094°60'0 0.0
2017-Dec-01 06:31N 29°41' W 094°60'1 1.3
2017-Dec-01 06:01N 29°41' W 094°59'5 9.8
2017-Dec-01 05:30N 29°36' W 094°57'713.1
2017-Dec-01 05:00N 29°31' W 094°53'713.2
2017-Dec-01 04:30N 29°25' W 094°49'611.2
2017-Dec-01 04:00N 29°21' W 094°45'711.8
2017-Dec-01 03:23N 29°18' W 094°37'12 1.0
2017-Nov-30 15:03N 29°07' W 094°32'0 0.0
2017-Nov-30 14:39N 29°07' W 094°32'0 0.0
2017-Nov-30 14:30N 29°07' W 094°32'0 0.0
2017-Nov-30 13:48N 29°07' W 094°32'0 0.0
2017-Nov-30 13:23N 29°07' W 094°32'0 0.0
2017-Nov-30 12:55N 29°07' W 094°32'0 0.0
2017-Nov-30 12:30N 29°07' W 094°32'0 0.8
2017-Nov-30 12:00N 29°07' W 094°31'3 6.8
2017-Nov-30 11:30N 29°07' W 094°27'612.1
2017-Nov-30 11:00N 29°08' W 094°21'1316.2
2017-Nov-30 10:14N 29°01' W 094°09'  
Track history (hours):
 
Tides and Currents Weather Stations Pressure Air Temp Water Temp Dewpoint Dewpoint Depression Visibility Wind Speed Wind Dir Waves Ship Positions

Yorktown Express

Owner: Marine Transport Management, Inc., Jacksonville, FL. More information available from US FCC via Universal Licensing System and Coast Guard Vessel Documentation Center.

Last reported at 2017-Dec-09 11:16 UTC. Time now 2017-Dec-14 16:58 UTC.
Position N 36°52' W 075°46'.

Type: Ship. MMSI: 367168650.

Date/timePositionNaut miles runAvg speedWind from/ knotsBaromVisibWave heightAir tempDewpointWater temp
2017-Dec-09 11:16N 36°52' W 075°46'2 9.0
2017-Dec-09 11:00N 36°52' W 075°49'4 8.2
2017-Dec-09 10:30N 36°53' W 075°54'5 9.2
2017-Dec-09 10:00N 36°56' W 075°59'510.5
2017-Dec-09 09:30N 36°58' W 076°05'916.5
2017-Dec-09 08:58N 37°00' W 076°16'511.5
2017-Dec-09 08:30N 36°57' W 076°20'1 2.3
2017-Dec-09 07:59N 36°55' W 076°20'0 0.0
2017-Dec-09 07:29N 36°55' W 076°20'0 0.0
2017-Dec-09 06:59N 36°55' W 076°20'0 0.0
2017-Dec-09 06:30N 36°55' W 076°20'0 0.0
2017-Dec-09 06:00N 36°55' W 076°20'0 0.0
2017-Dec-09 05:29N 36°55' W 076°20'0 0.0
2017-Dec-09 04:59N 36°55' W 076°20'0 0.0
2017-Dec-09 04:30N 36°55' W 076°20'0 0.0
2017-Dec-09 03:59N 36°55' W 076°20'0 0.0
2017-Dec-09 03:29N 36°55' W 076°20'0 0.0
2017-Dec-09 03:00N 36°55' W 076°20'0 0.0
2017-Dec-09 02:27N 36°55' W 076°20'0 0.0
2017-Dec-09 01:59N 36°55' W 076°20'0 0.0
2017-Dec-09 01:30N 36°55' W 076°20'0 0.0
2017-Dec-09 00:59N 36°55' W 076°20'0 0.0
2017-Dec-09 00:30N 36°55' W 076°20'0 0.0
2017-Dec-08 23:59N 36°55' W 076°20'0 0.0
2017-Dec-08 23:29N 36°55' W 076°20'0 0.0
2017-Dec-08 22:59N 36°55' W 076°20'0 0.0
2017-Dec-08 22:29N 36°55' W 076°20'0 0.0
2017-Dec-08 21:59N 36°55' W 076°20'0 0.0
2017-Dec-08 21:29N 36°55' W 076°20'0 0.0
2017-Dec-08 21:00N 36°55' W 076°20'0 0.0
2017-Dec-08 20:29N 36°55' W 076°20'0 0.0
2017-Dec-08 19:59N 36°55' W 076°20'0 0.0
2017-Dec-08 19:29N 36°55' W 076°20'0 0.0
2017-Dec-08 19:00N 36°55' W 076°20'0 0.0
2017-Dec-08 18:29N 36°55' W 076°20'0 0.0
2017-Dec-08 18:00N 36°55' W 076°20'0 0.0
2017-Dec-08 17:29N 36°55' W 076°20'0 0.0
2017-Dec-08 17:00N 36°55' W 076°20'0 0.0
2017-Dec-08 16:29N 36°55' W 076°20'0 0.0
2017-Dec-08 15:59N 36°55' W 076°20'0 0.0
2017-Dec-08 15:30N 36°55' W 076°20'0 0.0
2017-Dec-08 14:59N 36°55' W 076°20'1 1.8
2017-Dec-08 14:30N 36°56' W 076°20'4 8.9
2017-Dec-08 14:01N 37°00' W 076°18'816.0
2017-Dec-08 13:30N 36°59' W 076°08'714.3
2017-Dec-08 13:00N 36°57' W 075°59'4 8.8
2017-Dec-08 12:30N 36°55' W 075°54'3 6.5
2017-Dec-08 12:00N 36°52' W 075°51'5 8.3
2017-Dec-08 11:23N 36°50' W 075°46'36915.0
2017-Dec-07 10:49N 31°58' W 080°20'13 9.2
2017-Dec-07 09:24N 31°56' W 080°35'4 8.9
2017-Dec-07 09:00N 31°56' W 080°39'4 7.7
2017-Dec-07 08:30N 31°58' W 080°43'714.9
2017-Dec-07 08:01N 32°02' W 080°50'612.6
2017-Dec-07 07:31N 32°04' W 080°57'5 9.2
2017-Dec-07 07:00N 32°05' W 081°03'4 7.3
2017-Dec-07 06:29N 32°06' W 081°07'2 3.9
2017-Dec-07 06:00N 32°08' W 081°08'1 1.2
2017-Dec-07 05:30N 32°07' W 081°08'0 0.0
2017-Dec-07 05:00N 32°07' W 081°08'0 0.0
2017-Dec-07 04:18N 32°07' W 081°08'0 0.0
2017-Dec-07 04:00N 32°07' W 081°08'0 0.0
2017-Dec-07 03:30N 32°07' W 081°08'0 0.0
2017-Dec-07 02:54N 32°07' W 081°08'0 0.0
2017-Dec-07 02:30N 32°07' W 081°08'0 0.0
2017-Dec-07 02:00N 32°07' W 081°08'0 0.0
2017-Dec-07 01:30N 32°07' W 081°08'0 0.0
2017-Dec-07 01:00N 32°07' W 081°08'0 0.0
2017-Dec-07 00:24N 32°07' W 081°08'0 0.0
2017-Dec-07 00:00N 32°07' W 081°08'0 0.0
2017-Dec-06 23:30N 32°07' W 081°08'0 0.0
2017-Dec-06 23:00N 32°07' W 081°08'0 0.0
2017-Dec-06 22:30N 32°07' W 081°08'0 0.0
2017-Dec-06 22:00N 32°07' W 081°08'0 0.0
2017-Dec-06 21:30N 32°07' W 081°08'0 0.0
2017-Dec-06 21:00N 32°07' W 081°08'  
2017-Dec-04 10:30N 26°01' W 079°48'1122.2
2017-Dec-04 10:01N 25°50' W 079°50'1122.2
2017-Dec-04 09:30N 25°39' W 079°52'1121.8
2017-Dec-04 09:00N 25°28' W 079°55'1121.0
2017-Dec-04 08:30N 25°19' W 080°01'82318.2
2017-Dec-02 11:23N 29°21' W 094°47'514.6
2017-Dec-02 11:00N 29°26' W 094°50'713.5
2017-Dec-02 10:30N 29°32' W 094°54'612.8
2017-Dec-02 10:00N 29°37' W 094°57'4 8.5
2017-Dec-02 09:30N 29°41' W 094°59'0 0.1
2017-Dec-02 08:58N 29°41' W 094°60'0 0.0
2017-Dec-02 08:28N 29°41' W 094°60'0 0.0
2017-Dec-02 07:58N 29°41' W 094°60'0 0.0
2017-Dec-02 07:28N 29°41' W 094°60'0 0.0
2017-Dec-02 06:58N 29°41' W 094°60'0 0.0
2017-Dec-02 06:28N 29°41' W 094°60'0 0.0
2017-Dec-02 05:58N 29°41' W 094°60'0 0.0
2017-Dec-02 05:28N 29°41' W 094°60'0 0.0
2017-Dec-02 04:58N 29°41' W 094°60'0 0.0
2017-Dec-02 04:28N 29°41' W 094°60'0 0.0
2017-Dec-02 03:58N 29°41' W 094°60'0 0.0
2017-Dec-02 03:28N 29°41' W 094°60'0 0.0
2017-Dec-02 02:58N 29°41' W 094°60'0 0.0
2017-Dec-02 02:28N 29°41' W 094°60'0 0.0
2017-Dec-02 01:58N 29°41' W 094°60'0 0.0
2017-Dec-02 01:28N 29°41' W 094°60'0 0.0
2017-Dec-02 00:58N 29°41' W 094°60'0 0.0
2017-Dec-02 00:25N 29°41' W 094°60'0 0.0
2017-Dec-01 23:58N 29°41' W 094°60'0 0.0
2017-Dec-01 23:28N 29°41' W 094°60'0 0.0
2017-Dec-01 22:58N 29°41' W 094°60'0 0.0
2017-Dec-01 22:28N 29°41' W 094°60'0 0.0
2017-Dec-01 21:58N 29°41' W 094°60'0 0.0
2017-Dec-01 21:28N 29°41' W 094°60'0 0.0
2017-Dec-01 20:58N 29°41' W 094°60'0 0.0
2017-Dec-01 20:28N 29°41' W 094°60'0 0.0
2017-Dec-01 19:58N 29°41' W 094°60'0 0.0
2017-Dec-01 19:28N 29°41' W 094°60'0 0.0
2017-Dec-01 18:58N 29°41' W 094°60'0 0.0
2017-Dec-01 18:28N 29°41' W 094°60'0 0.0
2017-Dec-01 17:58N 29°41' W 094°60'0 0.0
2017-Dec-01 17:28N 29°41' W 094°60'0 0.0
2017-Dec-01 16:58N 29°41' W 094°60'0 0.0
2017-Dec-01 16:28N 29°41' W 094°60'0 0.0
2017-Dec-01 15:58N 29°41' W 094°60'0 0.0
2017-Dec-01 15:25N 29°41' W 094°60'0 0.0
2017-Dec-01 14:58N 29°41' W 094°60'0 0.0
2017-Dec-01 14:28N 29°41' W 094°60'0 0.0
2017-Dec-01 13:58N 29°41' W 094°60'0 0.0
2017-Dec-01 13:28N 29°41' W 094°60'0 0.0
2017-Dec-01 12:58N 29°41' W 094°60'0 0.0
2017-Dec-01 12:28N 29°41' W 094°60'0 0.0
2017-Dec-01 11:58N 29°41' W 094°60'0 0.0
2017-Dec-01 11:28N 29°41' W 094°60'0 0.0
2017-Dec-01 10:58N 29°41' W 094°60'0 0.0
2017-Dec-01 10:28N 29°41' W 094°60'0 0.0
2017-Dec-01 09:58N 29°41' W 094°60'0 0.0
2017-Dec-01 09:28N 29°41' W 094°60'0 0.0
2017-Dec-01 08:58N 29°41' W 094°60'0 0.0
2017-Dec-01 08:28N 29°41' W 094°60'0 0.0
2017-Dec-01 07:58N 29°41' W 094°60'0 0.0
2017-Dec-01 07:28N 29°41' W 094°60'0 0.0
2017-Dec-01 07:00N 29°41' W 094°60'0 0.0
2017-Dec-01 06:31N 29°41' W 094°60'1 1.3
2017-Dec-01 06:01N 29°41' W 094°59'5 9.8
2017-Dec-01 05:30N 29°36' W 094°57'713.1
2017-Dec-01 05:00N 29°31' W 094°53'713.2
2017-Dec-01 04:30N 29°25' W 094°49'611.2
2017-Dec-01 04:00N 29°21' W 094°45'711.8
2017-Dec-01 03:23N 29°18' W 094°37'12 1.0
2017-Nov-30 15:03N 29°07' W 094°32'0 0.0
2017-Nov-30 14:39N 29°07' W 094°32'0 0.0
2017-Nov-30 14:30N 29°07' W 094°32'0 0.0
2017-Nov-30 13:48N 29°07' W 094°32'0 0.0
2017-Nov-30 13:23N 29°07' W 094°32'0 0.0
2017-Nov-30 12:55N 29°07' W 094°32'0 0.0
2017-Nov-30 12:30N 29°07' W 094°32'0 0.8
2017-Nov-30 12:00N 29°07' W 094°31'3 6.8
2017-Nov-30 11:30N 29°07' W 094°27'612.1
2017-Nov-30 11:00N 29°08' W 094°21'1316.2
2017-Nov-30 10:14N 29°01' W 094°09'  

Dump ship's entire track history